WetterOnline ( http://www.wetteronline.at )

Wetter aktuell Der Rennsteig (in 900m)

Aktuelles Wetter: Schmücke (948m)

6-stündlich | Neueste Meldungen
Ortszeit Temperatur Wetter
Mi, 23.01. 19:00 -9.7° C bewölkt
Mi, 23.01. 13:00 -5.9° C bedeckt
Mi, 23.01. 7:00 -10.3° C Nebel
Mi, 23.01. 1:00 -10.9° C bedeckt
Di, 22.01. 19:00 -11.0° C bedeckt
Di, 22.01. 13:00 -7.9° C bewölkt
Di, 22.01. 7:00 -9.1° C bedeckt
Di, 22.01. 1:00 -9.6° C wolkenlos
Ortszeit Temperatur Wetter
Mi, 23.01. 22:30 -10.9° C bewölkt
Mi, 23.01. 22:10 -10.8° C bewölkt
Mi, 23.01. 22:00 -10.6° C bewölkt
Mi, 23.01. 21:50 -10.6° C bewölkt
Mi, 23.01. 21:40 -10.6° C bewölkt
Mi, 23.01. 21:30 -10.4° C bewölkt
Mi, 23.01. 21:00 -10.3° C bewölkt
Mi, 23.01. 20:30 -10.2° C bewölkt
Mi, 23.01. 20:00 -10.1° C bewölkt
Mi, 23.01. 19:30 -9.8° C bewölkt
Ortszeit Relative Feuchte Sichtweite
Mi, 23.01. 19:00 89% 4.1 km
Mi, 23.01. 13:00 91% 20 km
Mi, 23.01. 7:00 92% 0.3 km
Mi, 23.01. 1:00 90% 1.5 km
Di, 22.01. 19:00 89% 3.0 km
Di, 22.01. 13:00 95% 4.0 km
Di, 22.01. 7:00 92% 2.0 km
Di, 22.01. 1:00 90% 17 km
Ortszeit Relative Feuchte Sichtweite
Mi, 23.01. 22:30 89% 3.7 km
Mi, 23.01. 22:10 89% -
Mi, 23.01. 22:00 89% 3.9 km
Mi, 23.01. 21:50 89% -
Mi, 23.01. 21:40 89% -
Mi, 23.01. 21:30 89% 3.2 km
Mi, 23.01. 21:00 89% 4.7 km
Mi, 23.01. 20:30 88% 6 km
Mi, 23.01. 20:00 88% 7 km
Mi, 23.01. 19:30 89% 5.0 km
Ortszeit Niederschlagsmenge Niederschlagsart
Mi, 23.01. 19:00 0.0 l/m2 in 12 Std. -
Mi, 23.01. 13:00 0.0 l/m2 in 6 Std. -
Mi, 23.01. 7:00 0.1 l/m2 in 12 Std. Schnee
Mi, 23.01. 1:00 0.1 l/m2 in 6 Std. Schnee
Di, 22.01. 19:00 0.1 l/m2 in 12 Std. -
Di, 22.01. 13:00 0.1 l/m2 in 6 Std. Schnee
Di, 22.01. 7:00 0.0 l/m2 in 12 Std. -
Di, 22.01. 1:00 0.0 l/m2 in 6 Std. -
Ortszeit Niederschlagsmenge Niederschlagsart
Mi, 23.01. 22:30 0.0 l/m2 in 1 Std. -
Mi, 23.01. 22:10 keine Meldung -
Mi, 23.01. 22:00 0.0 l/m2 in 1 Std. -
Mi, 23.01. 21:50 keine Meldung -
Mi, 23.01. 21:40 keine Meldung -
Mi, 23.01. 21:30 0.0 l/m2 in 1 Std. -
Mi, 23.01. 21:00 0.0 l/m2 in 1 Std. -
Mi, 23.01. 20:30 0.0 l/m2 in 1 Std. -
Mi, 23.01. 20:00 0.0 l/m2 in 1 Std. -
Mi, 23.01. 19:30 0.0 l/m2 in 1 Std. -
Ortszeit Stärke Spitze Richtung
km/h Bft. km/h Grad Sektor
Mi, 23.01. 19:00 20 4 33 60° NO
Mi, 23.01. 13:00 7 2 26 80° O
Mi, 23.01. 7:00 7 2 29 220° SW
Mi, 23.01. 1:00 22 4 32 210° SW
Di, 22.01. 19:00 20 4 28 220° SW
Di, 22.01. 13:00 9 2 30 220° SW
Di, 22.01. 7:00 17 3 24 230° SW
Di, 22.01. 1:00 6 1 13 230° SW
Ortszeit Stärke Spitze Richtung
km/h Bft. km/h Grad Sektor
Mi, 23.01. 22:30 17 3 30 20° N
Mi, 23.01. 22:10 14 3 - 40° NO
Mi, 23.01. 22:00 14 3 32 50° NO
Mi, 23.01. 21:50 14 3 - 50° NO
Mi, 23.01. 21:40 17 3 - 50° NO
Mi, 23.01. 21:30 18 3 32 40° NO
Mi, 23.01. 21:00 18 3 32 50° NO
Mi, 23.01. 20:30 20 4 33 60° NO
Mi, 23.01. 20:00 22 4 36 60° NO
Mi, 23.01. 19:30 18 3 32 60° NO
Ortszeit Untergrenze Bedeckung Gattung
total tief tief mittel hoch
Mi, 23.01. 19:00 30 m 8/8 7/8 - - -
Mi, 23.01. 13:00 3000 m 8/8 8/8 - - -
Mi, 23.01. 7:00 <30 m 8/8 0/8 - - -
Mi, 23.01. 1:00 <30 m 8/8 0/8 - - -
Di, 22.01. 19:00 <30 m 8/8 0/8 - - -
Di, 22.01. 13:00 <30 m 8/8 0/8 - - -
Di, 22.01. 7:00 <30 m 8/8 0/8 - - -
Di, 22.01. 1:00 - 0/8 0/8 - - -
Ortszeit Bedeckungsgrad in Achtel und Wolkenuntergrenze
Mi, 23.01. 22:30 7(30m) 7(3900m) 8(7800m)
Mi, 23.01. 22:10 7(30m) 7(3900m) 8(7800m)
Mi, 23.01. 22:00 7(30m) 7(7800m) 8(7800m)
Mi, 23.01. 21:50 7(30m) 7(7800m)
Mi, 23.01. 21:40 7(30m)
Mi, 23.01. 21:30 7(30m) 8(3300m)
Mi, 23.01. 21:00 7(30m) 8(3300m) 8(4800m)
Mi, 23.01. 20:30 6(60m) 7(3600m) 8(4800m)
Mi, 23.01. 20:00 4(30m) 8(3600m) 8(4800m)
Mi, 23.01. 19:30 6(30m) 8(3300m)
Ortszeit Stationsdruck (hPa) Tendenz (hPa in 3 Std.)
Mi, 23.01. 19:00 890 + 1,5
Mi, 23.01. 13:00 888 - 0,3
Mi, 23.01. 7:00 888 - 1,0
Mi, 23.01. 1:00 891 - 1,4
Di, 22.01. 19:00 894 - 1,6
Di, 22.01. 13:00 899 - 2,1
Di, 22.01. 7:00 902 - 1,7
Di, 22.01. 1:00 905 - 1,2
Ortszeit Stationsdruck (hPa) Tendenz (hPa in 3 Std.)
Mi, 23.01. 22:30 891 + 1,3
Mi, 23.01. 22:10 891 keine Meldung
Mi, 23.01. 22:00 891 + 1,3
Mi, 23.01. 21:50 891 keine Meldung
Mi, 23.01. 21:40 891 keine Meldung
Mi, 23.01. 21:30 891 + 1,3
Mi, 23.01. 21:00 890 + 1,1
Mi, 23.01. 20:30 890 + 1,3
Mi, 23.01. 20:00 890 + 1,5
Mi, 23.01. 19:30 890 + 1,5
Ortszeit Schneehöhe (cm)
Mi, 23.01. 19:00 56
Mi, 23.01. 13:00 56
Mi, 23.01. 7:00 56
Mi, 23.01. 1:00 56
Di, 22.01. 19:00 56
Di, 22.01. 13:00 56
Di, 22.01. 7:00 56
Di, 22.01. 1:00 56
Ortszeit Schneehöhe (cm)
Mi, 23.01. 22:30 56
Mi, 23.01. 22:10 56
Mi, 23.01. 22:00 56
Mi, 23.01. 21:50 56
Mi, 23.01. 21:40 56
Mi, 23.01. 21:30 56
Mi, 23.01. 21:00 56
Mi, 23.01. 20:30 56
Mi, 23.01. 20:00 56
Mi, 23.01. 19:30 56
Link zu dieser Seite / Seite empfehlen

Das Wetter in ...